createdAt,value
2018-12-17T00:01:54.386Z,0.50
2018-12-17T00:04:22.718Z,0.40
2018-12-17T00:06:51.054Z,0.50
2018-12-17T00:09:19.515Z,0.40
2018-12-17T00:11:47.977Z,0.40
2018-12-17T00:14:16.313Z,0.40
2018-12-17T00:16:44.654Z,0.40
2018-12-17T00:19:12.957Z,0.30
2018-12-17T00:21:41.266Z,0.30
2018-12-17T00:24:09.613Z,0.30
2018-12-17T00:26:37.930Z,0.30
2018-12-17T00:29:06.266Z,0.30
2018-12-17T00:31:34.582Z,0.20
2018-12-17T00:34:02.921Z,0.20
2018-12-17T00:36:31.243Z,0.20
2018-12-17T00:38:59.583Z,0.20
2018-12-17T00:41:27.930Z,0.10
2018-12-17T00:43:56.283Z,0.10
2018-12-17T00:46:24.581Z,0.10
2018-12-17T00:48:52.933Z,0.00
2018-12-17T00:51:21.565Z,0.00
2018-12-17T00:53:49.924Z,0.00
2018-12-17T00:56:18.242Z,0.00
2018-12-17T00:58:46.585Z,-0.10
2018-12-17T01:01:14.910Z,-0.10
2018-12-17T01:03:43.266Z,-0.20
2018-12-17T01:06:11.582Z,-0.20
2018-12-17T01:08:39.952Z,-0.30
2018-12-17T01:11:08.275Z,-0.30
2018-12-17T01:13:36.629Z,-0.40
2018-12-17T01:16:06.682Z,-0.40
2018-12-17T01:18:35.201Z,-0.40
2018-12-17T01:21:03.617Z,-0.50
2018-12-17T01:23:31.964Z,-0.50
2018-12-17T01:26:00.489Z,-0.50
2018-12-17T01:28:28.828Z,-0.50
2018-12-17T01:30:57.195Z,-0.50
2018-12-17T01:33:25.643Z,-0.50
2018-12-17T01:35:53.967Z,-0.50
2018-12-17T01:38:22.316Z,-0.60
2018-12-17T01:40:50.638Z,-0.60
2018-12-17T01:43:19.014Z,-0.70
2018-12-17T01:45:47.330Z,-0.70
2018-12-17T01:48:15.686Z,-0.70
2018-12-17T01:50:44.008Z,-0.70
2018-12-17T01:53:12.361Z,-0.70
2018-12-17T01:55:40.676Z,-0.80
2018-12-17T01:58:09.027Z,-0.80
2018-12-17T02:00:37.479Z,-0.80
2018-12-17T02:03:05.882Z,-0.80
2018-12-17T02:05:34.189Z,-0.90
2018-12-17T02:08:02.591Z,-0.90
2018-12-17T02:10:30.922Z,-0.90
2018-12-17T02:12:59.270Z,-1.00
2018-12-17T02:15:27.760Z,-1.00
2018-12-17T02:17:56.073Z,-1.00
2018-12-17T02:20:24.423Z,-1.10
2018-12-17T02:22:52.769Z,-1.10
2018-12-17T02:25:21.118Z,-1.10
2018-12-17T02:27:49.430Z,-1.10
2018-12-17T02:30:17.782Z,-1.10
2018-12-17T02:32:46.099Z,-1.10
2018-12-17T02:35:14.455Z,-1.20
2018-12-17T02:37:42.781Z,-1.20
2018-12-17T02:40:11.130Z,-1.20
2018-12-17T02:42:39.564Z,-1.20
2018-12-17T02:45:08.123Z,-1.20
2018-12-17T02:47:36.449Z,-1.20
2018-12-17T02:50:12.394Z,-1.20
2018-12-17T02:52:40.793Z,-1.20
2018-12-17T02:55:09.385Z,-1.30
2018-12-17T02:57:37.703Z,-1.30
2018-12-17T03:00:07.304Z,-1.30
2018-12-17T03:02:35.619Z,-1.30
2018-12-17T03:05:04.383Z,-1.30
2018-12-17T03:07:32.698Z,-1.30
2018-12-17T03:10:01.142Z,-1.30
2018-12-17T03:12:29.459Z,-1.40
2018-12-17T03:14:57.802Z,-1.40
2018-12-17T03:17:26.144Z,-1.40
2018-12-17T03:19:54.464Z,-1.40
2018-12-17T03:22:22.802Z,-1.40
2018-12-17T03:24:51.106Z,-1.40
2018-12-17T03:27:19.450Z,-1.40
2018-12-17T03:29:48.879Z,-1.50
2018-12-17T03:32:17.212Z,-1.40
2018-12-17T03:34:45.559Z,-1.40
2018-12-17T03:37:13.895Z,-1.50
2018-12-17T03:39:42.202Z,-1.50
2018-12-17T03:42:11.137Z,-1.50
2018-12-17T03:44:39.441Z,-1.50
2018-12-17T03:47:07.865Z,-1.40
2018-12-17T03:49:36.175Z,-1.40
2018-12-17T03:52:04.507Z,-1.40
2018-12-17T03:54:32.825Z,-1.40
2018-12-17T03:57:01.166Z,-1.30
2018-12-17T03:59:29.472Z,-1.30
2018-12-17T04:01:57.806Z,-1.30
2018-12-17T04:04:26.124Z,-1.30
2018-12-17T04:06:54.459Z,-1.30
2018-12-17T04:09:22.811Z,-1.40
2018-12-17T04:11:51.147Z,-1.40
2018-12-17T04:14:19.461Z,-1.30
2018-12-17T04:16:47.820Z,-1.30
2018-12-17T04:19:16.141Z,-1.30
2018-12-17T04:21:44.487Z,-1.30
2018-12-17T04:24:12.974Z,-1.30
2018-12-17T04:26:41.311Z,-1.30
2018-12-17T04:29:09.630Z,-1.30
2018-12-17T04:31:37.970Z,-1.30
2018-12-17T04:34:06.326Z,-1.30
2018-12-17T04:36:34.665Z,-1.30
2018-12-17T04:39:03.139Z,-1.30
2018-12-17T04:41:31.482Z,-1.40
2018-12-17T04:43:59.824Z,-1.40
2018-12-17T04:46:28.162Z,-1.40
2018-12-17T04:48:56.477Z,-1.40
2018-12-17T04:51:25.134Z,-1.50
2018-12-17T04:53:53.434Z,-1.50
2018-12-17T04:56:21.946Z,-1.50
2018-12-17T04:58:50.272Z,-1.50
2018-12-17T05:01:18.632Z,-1.60
2018-12-17T05:03:47.036Z,-1.60
2018-12-17T05:06:15.369Z,-1.60
2018-12-17T05:08:43.706Z,-1.60
2018-12-17T05:11:12.050Z,-1.70
2018-12-17T05:13:40.363Z,-1.70
2018-12-17T05:16:08.738Z,-1.80
2018-12-17T05:18:37.068Z,-1.80
2018-12-17T05:21:05.421Z,-1.80
2018-12-17T05:23:33.741Z,-1.80
2018-12-17T05:26:02.094Z,-1.80
2018-12-17T05:28:30.419Z,-1.80
2018-12-17T05:30:58.751Z,-1.80
2018-12-17T05:33:27.274Z,-1.80
2018-12-17T05:35:56.525Z,-1.70
2018-12-17T05:38:25.129Z,-1.70
2018-12-17T05:40:53.475Z,-1.70
2018-12-17T05:43:21.856Z,-1.60
2018-12-17T05:45:50.198Z,-1.60
2018-12-17T05:48:18.545Z,-1.50
2018-12-17T05:50:46.872Z,-1.50
2018-12-17T05:53:15.224Z,-1.50
2018-12-17T05:55:44.313Z,-1.50
2018-12-17T05:58:12.810Z,-1.50
2018-12-17T06:00:41.130Z,-1.50
2018-12-17T06:03:09.471Z,-1.50
2018-12-17T06:05:37.831Z,-1.50
2018-12-17T06:08:06.290Z,-1.50
2018-12-17T06:10:34.609Z,-1.50
2018-12-17T06:13:02.966Z,-1.50
2018-12-17T06:15:31.281Z,-1.50
2018-12-17T06:17:59.622Z,-1.50
2018-12-17T06:20:27.929Z,-1.50
2018-12-17T06:22:56.274Z,-1.60
2018-12-17T06:25:24.596Z,-1.60
2018-12-17T06:27:52.933Z,-1.60
2018-12-17T06:30:21.255Z,-1.60
2018-12-17T06:32:49.598Z,-1.50
2018-12-17T06:35:17.914Z,-1.40
2018-12-17T06:37:46.251Z,-1.40
2018-12-17T06:40:14.565Z,-1.40
2018-12-17T06:42:43.330Z,-1.40
2018-12-17T06:45:11.713Z,-1.40
2018-12-17T06:47:40.050Z,-1.50
2018-12-17T06:50:08.461Z,-1.40
2018-12-17T06:52:36.798Z,-1.50
2018-12-17T06:55:20.105Z,-1.50
2018-12-17T06:57:50.073Z,-1.50
2018-12-17T07:00:18.403Z,-1.50
2018-12-17T07:02:46.815Z,-1.50
2018-12-17T07:05:15.121Z,-1.60
2018-12-17T07:07:43.453Z,-1.60
2018-12-17T07:10:11.758Z,-1.60
2018-12-17T07:12:40.102Z,-1.70
2018-12-17T07:15:08.433Z,-1.70
2018-12-17T07:17:36.782Z,-1.70
2018-12-17T07:20:05.394Z,-1.70
2018-12-17T07:22:33.757Z,-1.70
2018-12-17T07:25:02.143Z,-1.80
2018-12-17T07:27:30.559Z,-1.80
2018-12-17T07:29:58.882Z,-1.80
2018-12-17T07:32:27.261Z,-1.80
2018-12-17T07:34:55.674Z,-1.70
2018-12-17T07:37:24.050Z,-1.60
2018-12-17T07:39:52.478Z,-1.60
2018-12-17T07:42:20.836Z,-1.60
2018-12-17T07:44:49.162Z,-1.60
2018-12-17T07:47:17.504Z,-1.60
2018-12-17T07:49:45.826Z,-1.60
2018-12-17T07:52:14.188Z,-1.60
2018-12-17T07:54:42.504Z,-1.50
2018-12-17T07:57:10.845Z,-1.50
2018-12-17T07:59:39.167Z,-1.50
2018-12-17T08:02:07.518Z,-1.40
2018-12-17T08:04:35.830Z,-1.30
2018-12-17T08:07:04.174Z,-1.20
2018-12-17T08:09:32.486Z,-1.10
2018-12-17T08:12:00.838Z,-1.00
2018-12-17T08:14:29.146Z,-1.00
2018-12-17T08:16:57.789Z,-0.90
2018-12-17T08:19:26.110Z,-0.90
2018-12-17T08:21:54.453Z,-0.90
2018-12-17T08:24:22.773Z,-0.90
2018-12-17T08:26:51.113Z,-0.90
2018-12-17T08:29:19.434Z,-0.80
2018-12-17T08:31:47.774Z,-0.80
2018-12-17T08:34:16.086Z,-0.90
2018-12-17T08:36:44.486Z,-0.80
2018-12-17T08:39:12.805Z,-0.70
2018-12-17T08:41:41.169Z,-0.70
2018-12-17T08:44:09.667Z,-0.60
2018-12-17T08:46:38.010Z,-0.60
2018-12-17T08:49:06.358Z,-0.50
2018-12-17T08:51:34.774Z,-0.50
2018-12-17T08:54:03.177Z,-0.40
2018-12-17T08:56:31.565Z,-0.30
2018-12-17T08:58:59.917Z,-0.30
2018-12-17T09:01:28.434Z,-0.20
2018-12-17T09:03:56.793Z,-0.20
2018-12-17T09:06:25.118Z,-0.10
2018-12-17T09:08:53.462Z,-0.10
2018-12-17T09:11:21.902Z,0.00
2018-12-17T09:13:50.255Z,0.00
2018-12-17T09:16:18.573Z,0.00
2018-12-17T09:18:46.914Z,0.10
2018-12-17T09:21:15.238Z,0.20
2018-12-17T09:23:43.610Z,0.20
2018-12-17T09:26:11.981Z,0.30
2018-12-17T09:28:40.442Z,0.30
2018-12-17T09:31:08.772Z,0.40
2018-12-17T09:33:37.110Z,0.40
2018-12-17T09:36:05.427Z,0.50
2018-12-17T09:38:33.774Z,0.50
2018-12-17T09:41:02.110Z,0.60
2018-12-17T09:43:30.457Z,0.70
2018-12-17T09:45:58.784Z,0.70
2018-12-17T09:48:27.122Z,0.90
2018-12-17T09:50:55.461Z,0.90
2018-12-17T09:53:23.813Z,1.00
2018-12-17T09:55:52.240Z,1.10
2018-12-17T09:58:20.601Z,1.30
2018-12-17T10:00:48.940Z,1.30
2018-12-17T10:03:17.400Z,1.50
2018-12-17T10:05:45.710Z,1.60
2018-12-17T10:08:14.069Z,1.70
2018-12-17T10:10:42.446Z,1.90
2018-12-17T10:13:10.786Z,1.90
2018-12-17T10:15:39.203Z,2.00
2018-12-17T10:18:07.546Z,2.10
2018-12-17T10:20:35.869Z,2.20
2018-12-17T10:23:04.218Z,2.20
2018-12-17T10:25:32.530Z,2.20
2018-12-17T10:28:00.872Z,2.30
2018-12-17T10:30:32.506Z,2.30
2018-12-17T10:32:59.574Z,2.40
2018-12-17T10:35:27.886Z,2.40
2018-12-17T10:37:56.259Z,2.50
2018-12-17T10:40:24.595Z,2.50
2018-12-17T10:42:52.945Z,2.50
2018-12-17T10:45:21.283Z,2.50
2018-12-17T10:47:49.652Z,2.50
2018-12-17T10:50:17.962Z,2.50
2018-12-17T10:52:46.535Z,2.50
2018-12-17T10:55:14.865Z,2.60
2018-12-17T10:57:43.217Z,2.60
2018-12-17T11:00:16.782Z,2.70
2018-12-17T11:02:45.325Z,2.80
2018-12-17T11:05:16.166Z,2.90
2018-12-17T11:07:44.510Z,3.00
2018-12-17T11:10:12.927Z,3.20
2018-12-17T11:12:41.286Z,3.30
2018-12-17T11:15:10.743Z,3.30
2018-12-17T11:17:39.361Z,3.40
2018-12-17T11:20:09.669Z,3.40
2018-12-17T11:22:38.017Z,3.50
2018-12-17T11:25:07.211Z,3.50
2018-12-17T11:27:35.577Z,3.50
2018-12-17T11:30:04.502Z,3.60
2018-12-17T11:32:32.855Z,3.60
2018-12-17T11:35:01.323Z,3.70
2018-12-17T11:37:29.674Z,3.70
2018-12-17T11:39:58.091Z,3.80
2018-12-17T11:42:26.409Z,3.80
2018-12-17T11:44:54.889Z,3.90
2018-12-17T11:47:23.392Z,3.90
2018-12-17T11:49:51.906Z,3.90
2018-12-17T11:52:20.235Z,4.00
2018-12-17T11:54:48.597Z,4.00
2018-12-17T11:58:14.211Z,4.10
2018-12-17T12:00:53.715Z,4.10
2018-12-17T12:03:18.326Z,4.20
2018-12-17T12:05:46.651Z,4.20
2018-12-17T12:08:14.987Z,4.20
2018-12-17T12:10:43.338Z,4.20
2018-12-17T12:13:11.687Z,4.20
2018-12-17T12:15:39.986Z,4.20
2018-12-17T12:18:08.328Z,4.20
2018-12-17T12:20:36.638Z,4.20
2018-12-17T12:23:05.084Z,4.20
2018-12-17T12:25:33.397Z,4.30
2018-12-17T12:28:01.726Z,4.30
2018-12-17T12:30:30.094Z,4.30
2018-12-17T12:32:58.410Z,4.30
2018-12-17T12:35:26.878Z,4.30
2018-12-17T12:37:55.194Z,4.30
2018-12-17T12:40:23.522Z,4.30
2018-12-17T12:42:52.082Z,4.30
2018-12-17T12:45:20.582Z,4.30
2018-12-17T12:47:48.879Z,4.30
2018-12-17T12:50:17.234Z,4.30
2018-12-17T12:52:45.551Z,4.40
2018-12-17T12:55:13.892Z,4.40
2018-12-17T12:57:42.210Z,4.30
2018-12-17T13:00:13.030Z,4.40
2018-12-17T13:02:41.393Z,4.40
2018-12-17T13:05:09.844Z,4.50
2018-12-17T13:07:38.151Z,4.40
2018-12-17T13:10:09.226Z,4.50
2018-12-17T13:12:37.715Z,4.50
2018-12-17T13:15:08.009Z,4.50
2018-12-17T13:17:36.578Z,4.50
2018-12-17T13:20:06.938Z,4.50
2018-12-17T13:22:35.258Z,4.50
2018-12-17T13:25:04.506Z,4.50
2018-12-17T13:27:32.811Z,4.50
2018-12-17T13:30:01.155Z,4.50
2018-12-17T13:32:29.586Z,4.50
2018-12-17T13:34:57.925Z,4.60
2018-12-17T13:37:26.222Z,4.60
2018-12-17T13:39:54.562Z,4.60
2018-12-17T13:42:24.324Z,4.60
2018-12-17T13:44:53.058Z,4.70
2018-12-17T13:47:21.363Z,4.70
2018-12-17T13:49:49.698Z,4.70
2018-12-17T13:52:23.350Z,4.60
2018-12-17T13:54:51.698Z,4.60
2018-12-17T13:57:20.014Z,4.60
2018-12-17T13:59:48.362Z,4.50
2018-12-17T14:02:16.778Z,4.50
2018-12-17T14:04:45.151Z,4.40
2018-12-17T14:07:13.454Z,4.40
2018-12-17T14:09:47.238Z,4.40
2018-12-17T14:12:15.555Z,4.40
2018-12-17T14:14:43.894Z,4.40
2018-12-17T14:17:17.708Z,4.40
2018-12-17T14:19:50.485Z,4.40
2018-12-17T14:22:19.279Z,4.40
2018-12-17T14:24:47.678Z,4.30
2018-12-17T14:27:22.838Z,4.30
2018-12-17T14:29:51.187Z,4.30
2018-12-17T14:32:19.485Z,4.30
2018-12-17T14:34:47.821Z,4.30
2018-12-17T14:37:16.153Z,4.30
2018-12-17T14:39:44.509Z,4.30
2018-12-17T14:42:12.814Z,4.30
2018-12-17T14:44:41.150Z,4.30
2018-12-17T14:47:09.458Z,4.30
2018-12-17T14:49:38.729Z,4.30
2018-12-17T14:52:07.175Z,4.30
2018-12-17T14:54:35.565Z,4.30
2018-12-17T14:57:04.014Z,4.30
2018-12-17T14:59:32.353Z,4.30
2018-12-17T15:02:00.657Z,4.30
2018-12-17T15:04:29.017Z,4.30
2018-12-17T15:06:57.354Z,4.30
2018-12-17T15:09:25.710Z,4.30
2018-12-17T15:11:54.039Z,4.30
2018-12-17T15:14:22.386Z,4.50
2018-12-17T15:16:50.725Z,4.80
2018-12-17T15:19:19.108Z,4.80
2018-12-17T15:21:47.449Z,4.70
2018-12-17T15:24:15.785Z,4.70
2018-12-17T15:26:44.177Z,4.60
2018-12-17T15:29:12.605Z,4.50
2018-12-17T15:31:43.233Z,4.40
2018-12-17T15:34:11.385Z,4.40
2018-12-17T15:36:40.675Z,4.30
2018-12-17T15:39:09.169Z,4.30
2018-12-17T15:41:37.510Z,4.30
2018-12-17T15:44:05.817Z,4.30
2018-12-17T15:46:34.166Z,4.20
2018-12-17T15:49:02.481Z,4.20
2018-12-17T15:51:30.826Z,4.20
2018-12-17T15:53:59.126Z,4.10
2018-12-17T15:56:27.463Z,4.10
2018-12-17T15:58:55.771Z,4.00
2018-12-17T16:01:24.143Z,4.00
2018-12-17T16:03:52.460Z,3.90
2018-12-17T16:06:20.906Z,3.90
2018-12-17T16:08:49.335Z,3.90
2018-12-17T16:11:17.679Z,3.80
2018-12-17T16:13:46.006Z,3.80
2018-12-17T16:16:14.349Z,3.70
2018-12-17T16:18:42.678Z,3.70
2018-12-17T16:21:11.028Z,3.60
2018-12-17T16:23:39.331Z,3.60
2018-12-17T16:26:07.663Z,3.60
2018-12-17T16:28:36.077Z,3.50
2018-12-17T16:31:04.522Z,3.50
2018-12-17T16:33:32.843Z,3.40
2018-12-17T16:36:01.189Z,3.50
2018-12-17T16:38:29.505Z,3.50
2018-12-17T16:40:57.843Z,3.40
2018-12-17T16:43:26.166Z,3.40
2018-12-17T16:45:54.557Z,3.40
2018-12-17T16:48:22.874Z,3.40
2018-12-17T16:50:51.223Z,3.30
2018-12-17T16:53:19.602Z,3.40
2018-12-17T16:55:48.045Z,3.50
2018-12-17T16:58:16.366Z,3.40
2018-12-17T17:00:44.874Z,3.40
2018-12-17T17:03:13.191Z,3.30
2018-12-17T17:05:41.533Z,3.30
2018-12-17T17:08:09.857Z,3.30
2018-12-17T17:10:38.203Z,3.30
2018-12-17T17:13:06.623Z,3.20
2018-12-17T17:15:35.006Z,3.20
2018-12-17T17:18:03.310Z,3.20
2018-12-17T17:20:31.660Z,3.20
2018-12-17T17:22:59.953Z,3.20
2018-12-17T17:25:28.369Z,3.20
2018-12-17T17:27:56.751Z,3.20
2018-12-17T17:30:25.126Z,3.20
2018-12-17T17:32:53.434Z,3.20
2018-12-17T17:35:21.779Z,3.10
2018-12-17T17:37:50.097Z,3.20
2018-12-17T17:40:18.438Z,3.20
2018-12-17T17:42:46.854Z,3.20
2018-12-17T17:45:15.187Z,3.20
2018-12-17T17:47:43.510Z,3.20
2018-12-17T17:50:11.966Z,3.20
2018-12-17T17:52:40.287Z,3.20
2018-12-17T17:55:08.729Z,3.20
2018-12-17T17:57:37.094Z,3.20
2018-12-17T18:00:05.873Z,3.20
2018-12-17T18:02:34.225Z,3.10
2018-12-17T18:05:02.534Z,3.10
2018-12-17T18:07:30.874Z,3.20
2018-12-17T18:09:59.308Z,3.20
2018-12-17T18:12:27.663Z,3.10
2018-12-17T18:14:55.990Z,3.10
2018-12-17T18:17:24.313Z,3.20
2018-12-17T18:19:52.629Z,3.20
2018-12-17T18:22:21.085Z,3.10
2018-12-17T18:24:49.390Z,3.10
2018-12-17T18:27:17.741Z,3.10
2018-12-17T18:29:46.046Z,3.00
2018-12-17T18:32:14.407Z,3.00
2018-12-17T18:34:42.712Z,2.90
2018-12-17T18:37:11.078Z,2.90
2018-12-17T18:39:39.390Z,2.90
2018-12-17T18:42:07.770Z,2.90
2018-12-17T18:44:36.086Z,2.90
2018-12-17T18:47:04.550Z,2.80
2018-12-17T18:49:32.854Z,2.80
2018-12-17T18:52:01.225Z,2.70
2018-12-17T18:54:29.540Z,2.70
2018-12-17T18:56:57.990Z,2.70
2018-12-17T18:59:26.298Z,2.70
2018-12-17T19:01:54.681Z,2.70
2018-12-17T19:04:22.993Z,2.70
2018-12-17T19:06:51.349Z,2.70
2018-12-17T19:09:19.659Z,2.80
2018-12-17T19:11:48.005Z,2.80
2018-12-17T19:14:16.313Z,2.80
2018-12-17T19:16:44.751Z,2.90
2018-12-17T19:19:13.066Z,2.90
2018-12-17T19:21:42.433Z,2.90
2018-12-17T19:24:10.741Z,2.90
2018-12-17T19:26:39.195Z,2.90
2018-12-17T19:29:10.491Z,3.00
2018-12-17T19:31:38.843Z,3.00
2018-12-17T19:34:07.156Z,3.00
2018-12-17T19:36:35.601Z,3.00
2018-12-17T19:39:06.323Z,3.10
2018-12-17T19:41:34.666Z,3.10
2018-12-17T19:44:02.977Z,3.10
2018-12-17T19:46:31.338Z,3.10
2018-12-17T19:48:59.685Z,3.10
2018-12-17T19:51:28.054Z,3.10
2018-12-17T19:53:56.355Z,3.20
2018-12-17T19:56:24.818Z,3.20
2018-12-17T19:58:53.147Z,3.10
2018-12-17T20:01:21.571Z,3.10
2018-12-17T20:03:49.985Z,3.10
2018-12-17T20:06:18.346Z,3.10
2018-12-17T20:08:46.778Z,3.00
2018-12-17T20:11:15.162Z,3.00
2018-12-17T20:13:43.500Z,3.00
2018-12-17T20:16:11.926Z,3.00
2018-12-17T20:18:40.234Z,2.90
2018-12-17T20:21:08.606Z,2.90
2018-12-17T20:23:36.918Z,2.90
2018-12-17T20:26:05.270Z,2.80
2018-12-17T20:28:33.592Z,2.80
2018-12-17T20:31:03.049Z,2.70
2018-12-17T20:33:31.354Z,2.70
2018-12-17T20:35:59.721Z,2.70
2018-12-17T20:38:28.130Z,2.60
2018-12-17T20:40:56.498Z,2.60
2018-12-17T20:43:24.818Z,2.60
2018-12-17T20:45:53.140Z,2.60
2018-12-17T20:48:21.480Z,2.50
2018-12-17T20:50:49.822Z,2.50
2018-12-17T20:53:18.176Z,2.50
2018-12-17T20:55:46.502Z,2.50
2018-12-17T20:58:14.847Z,2.50
2018-12-17T21:00:43.292Z,2.50
2018-12-17T21:03:11.642Z,2.50
2018-12-17T21:05:39.958Z,2.50
2018-12-17T21:08:08.302Z,2.50
2018-12-17T21:10:36.620Z,2.50
2018-12-17T21:13:04.964Z,2.50
2018-12-17T21:15:33.284Z,2.60
2018-12-17T21:18:01.614Z,2.60
2018-12-17T21:20:29.925Z,2.60
2018-12-17T21:22:58.279Z,2.60
2018-12-17T21:25:26.594Z,2.60
2018-12-17T21:27:54.939Z,2.60
2018-12-17T21:30:23.250Z,2.60
2018-12-17T21:32:51.586Z,2.60
2018-12-17T21:35:19.902Z,2.60
2018-12-17T21:37:48.246Z,2.60
2018-12-17T21:40:16.559Z,2.50
2018-12-17T21:42:44.909Z,2.50
2018-12-17T21:45:13.254Z,2.50
2018-12-17T21:47:41.566Z,2.50
2018-12-17T21:50:09.914Z,2.50
2018-12-17T21:52:38.235Z,2.40
2018-12-17T21:55:06.682Z,2.40
2018-12-17T21:57:34.990Z,2.40
2018-12-17T22:00:03.743Z,2.30
2018-12-17T22:02:32.086Z,2.30
2018-12-17T22:05:00.433Z,2.30
2018-12-17T22:07:28.746Z,2.30
2018-12-17T22:09:57.107Z,2.30
2018-12-17T22:12:25.454Z,2.30
2018-12-17T22:14:53.795Z,2.20
2018-12-17T22:17:22.123Z,2.20
2018-12-17T22:19:50.493Z,2.30
2018-12-17T22:22:18.851Z,2.30
2018-12-17T22:24:47.157Z,2.30
2018-12-17T22:27:15.506Z,2.30
2018-12-17T22:29:43.847Z,2.30
2018-12-17T22:32:12.183Z,2.40
2018-12-17T22:34:40.521Z,2.40
2018-12-17T22:37:08.865Z,2.40
2018-12-17T22:39:37.201Z,2.40
2018-12-17T22:42:05.542Z,2.40
2018-12-17T22:44:33.962Z,2.50
2018-12-17T22:47:02.265Z,2.50
2018-12-17T22:49:30.585Z,2.50
2018-12-17T22:51:58.932Z,2.50
2018-12-17T22:54:27.282Z,2.50
2018-12-17T22:56:55.719Z,2.50
2018-12-17T22:59:24.170Z,2.50
2018-12-17T23:01:52.622Z,2.50
2018-12-17T23:04:20.933Z,2.50
2018-12-17T23:06:49.282Z,2.50
2018-12-17T23:09:16.626Z,2.50
2018-12-17T23:12:01.784Z,2.40
2018-12-17T23:14:41.452Z,2.40
2018-12-17T23:17:21.006Z,2.40
2018-12-17T23:19:49.759Z,2.30
2018-12-17T23:22:20.214Z,2.30
2018-12-17T23:24:48.535Z,2.20
2018-12-17T23:27:16.968Z,2.20
2018-12-17T23:29:45.278Z,2.20
2018-12-17T23:32:13.625Z,2.10
2018-12-17T23:34:42.082Z,2.10
2018-12-17T23:37:10.526Z,2.10
2018-12-17T23:39:38.973Z,2.00
2018-12-17T23:42:07.390Z,2.00
2018-12-17T23:44:36.858Z,2.00
2018-12-17T23:47:05.302Z,2.00
2018-12-17T23:49:33.615Z,1.90
2018-12-17T23:52:01.974Z,1.90
2018-12-17T23:54:30.278Z,1.90
2018-12-17T23:56:58.589Z,1.90
2018-12-17T23:59:26.937Z,1.90
